AUA66HJ EPWA-LOWW
Flight info
| Callsign | AUA66HJ |
|---|---|
| Flight time | 0h 51m |
| Altitude | 34000 |
| Route | EVINA N744 TUSIN DCT MIKOV MIKOV8W |
| Aircraft | A320/M-SDE3FGHIRWY/LB1 |
Departure
| Time | 2026-04-30 20:36 |
|---|---|
| Airport | Warsaw Chopin Airport (EPWA) |
Arrival
| Time | 2026-04-30 21:27 |
|---|---|
| Airport | Vienna International Airport (LOWW) |
| Time | Latitude | Longitude | Altitude | Speed | Heading |
|---|---|---|---|---|---|
| 2026-04-30 19:52 | 52.16848 | 20.97275 | 337 ft | 0 kts | 76° |
| 2026-04-30 20:23 | 52.16846 | 20.97259 | 334 ft | 4 kts | 76° |
| 2026-04-30 20:23 | 52.16839 | 20.97217 | 334 ft | 4 kts | 76° |
| 2026-04-30 20:24 | 52.16835 | 20.97174 | 334 ft | 4 kts | 90° |
| 2026-04-30 20:24 | 52.16838 | 20.97132 | 335 ft | 4 kts | 118° |
| 2026-04-30 20:24 | 52.16850 | 20.97108 | 335 ft | 1 kts | 152° |
| 2026-04-30 20:24 | 52.16853 | 20.97106 | 336 ft | 0 kts | 152° |
| 2026-04-30 20:28 | 52.16821 | 20.97134 | 334 ft | 3 kts | 152° |
| 2026-04-30 20:29 | 52.16796 | 20.97156 | 337 ft | 1 kts | 152° |
| 2026-04-30 20:30 | 52.16721 | 20.97221 | 337 ft | 4 kts | 152° |
| 2026-04-30 20:30 | 52.16576 | 20.97368 | 335 ft | 8 kts | 121° |
| 2026-04-30 20:31 | 52.16492 | 20.97663 | 336 ft | 14 kts | 114° |
| 2026-04-30 20:32 | 52.16385 | 20.97782 | 337 ft | 0 kts | 206° |
| 2026-04-30 20:34 | 52.16329 | 20.97740 | 335 ft | 6 kts | 204° |
| 2026-04-30 20:35 | 52.16303 | 20.97696 | 333 ft | 5 kts | 257° |
| 2026-04-30 20:35 | 52.16312 | 20.97647 | 336 ft | 4 kts | 295° |
| 2026-04-30 20:35 | 52.16570 | 20.96725 | 339 ft | 111 kts | 294° |
| 2026-04-30 20:36 | 52.16970 | 20.95307 | 407 ft | 158 kts | 294° |
| 2026-04-30 20:36 | 52.17435 | 20.93721 | 1153 ft | 153 kts | 296° |
| 2026-04-30 20:36 | 52.18265 | 20.90560 | 2574 ft | 152 kts | 279° |
| 2026-04-30 20:37 | 52.18146 | 20.88834 | 3204 ft | 157 kts | 260° |
| 2026-04-30 20:37 | 52.17883 | 20.87013 | 3641 ft | 176 kts | 261° |
| 2026-04-30 20:37 | 52.17597 | 20.84952 | 3912 ft | 198 kts | 260° |
| 2026-04-30 20:37 | 52.16913 | 20.82844 | 4174 ft | 230 kts | 225° |
| 2026-04-30 20:38 | 52.15437 | 20.81504 | 4560 ft | 258 kts | 204° |
| 2026-04-30 20:38 | 52.13692 | 20.80406 | 5108 ft | 277 kts | 201° |
| 2026-04-30 20:38 | 52.11860 | 20.79321 | 5920 ft | 285 kts | 201° |
| 2026-04-30 20:39 | 52.08059 | 20.77109 | 7614 ft | 296 kts | 200° |
| 2026-04-30 20:39 | 52.06107 | 20.75961 | 8461 ft | 300 kts | 200° |
| 2026-04-30 20:39 | 52.04129 | 20.74782 | 9314 ft | 305 kts | 200° |
| 2026-04-30 20:40 | 52.00062 | 20.72336 | 10698 ft | 325 kts | 200° |
| 2026-04-30 20:40 | 51.97864 | 20.71011 | 10980 ft | 348 kts | 200° |
| 2026-04-30 20:40 | 51.95556 | 20.69623 | 11569 ft | 358 kts | 200° |
| 2026-04-30 20:41 | 51.90808 | 20.66780 | 12995 ft | 369 kts | 200° |
| 2026-04-30 20:41 | 51.88379 | 20.65322 | 13707 ft | 375 kts | 200° |
| 2026-04-30 20:41 | 51.85915 | 20.63847 | 14375 ft | 380 kts | 199° |
| 2026-04-30 20:41 | 51.83415 | 20.62355 | 14990 ft | 385 kts | 199° |
| 2026-04-30 20:42 | 51.80920 | 20.60868 | 15588 ft | 390 kts | 199° |
| 2026-04-30 20:42 | 51.78359 | 20.59346 | 16199 ft | 394 kts | 199° |
| 2026-04-30 20:42 | 51.73148 | 20.56247 | 17422 ft | 404 kts | 199° |
| 2026-04-30 20:43 | 51.70498 | 20.54671 | 18024 ft | 408 kts | 198° |
| 2026-04-30 20:43 | 51.67818 | 20.53081 | 18617 ft | 413 kts | 198° |
| 2026-04-30 20:43 | 51.65105 | 20.51481 | 19140 ft | 417 kts | 198° |
| 2026-04-30 20:44 | 51.59590 | 20.48232 | 20136 ft | 427 kts | 198° |
| 2026-04-30 20:44 | 51.56789 | 20.46577 | 20641 ft | 431 kts | 198° |
| 2026-04-30 20:44 | 51.51100 | 20.43220 | 21615 ft | 440 kts | 198° |
| 2026-04-30 20:45 | 51.45298 | 20.39813 | 22554 ft | 448 kts | 197° |
| 2026-04-30 20:45 | 51.42355 | 20.38097 | 23019 ft | 452 kts | 197° |
| 2026-04-30 20:45 | 51.39436 | 20.36141 | 23478 ft | 458 kts | 205° |
| 2026-04-30 20:46 | 51.31517 | 20.27200 | 24521 ft | 471 kts | 217° |
| 2026-04-30 20:46 | 51.28897 | 20.24029 | 24910 ft | 474 kts | 217° |
| 2026-04-30 20:47 | 51.23584 | 20.17654 | 25629 ft | 481 kts | 216° |
| 2026-04-30 20:47 | 51.20897 | 20.14442 | 25984 ft | 485 kts | 216° |
| 2026-04-30 20:48 | 51.15455 | 20.07942 | 26669 ft | 493 kts | 216° |
| 2026-04-30 20:48 | 51.12696 | 20.04664 | 27001 ft | 496 kts | 216° |
| 2026-04-30 20:48 | 51.09920 | 20.01367 | 27341 ft | 500 kts | 216° |
| 2026-04-30 20:48 | 51.07128 | 19.98047 | 27673 ft | 503 kts | 216° |
| 2026-04-30 20:49 | 51.04312 | 19.94711 | 27999 ft | 507 kts | 216° |
| 2026-04-30 20:49 | 51.01472 | 19.91350 | 28331 ft | 510 kts | 216° |
| 2026-04-30 20:49 | 50.98618 | 19.87970 | 28652 ft | 514 kts | 216° |
| 2026-04-30 20:50 | 50.92858 | 19.81142 | 29281 ft | 520 kts | 215° |
| 2026-04-30 20:50 | 50.89944 | 19.77705 | 29609 ft | 524 kts | 215° |
| 2026-04-30 20:50 | 50.87011 | 19.74257 | 29930 ft | 527 kts | 215° |
| 2026-04-30 20:50 | 50.84057 | 19.70787 | 30221 ft | 530 kts | 215° |
| 2026-04-30 20:51 | 50.81086 | 19.67299 | 30507 ft | 533 kts | 215° |
| 2026-04-30 20:51 | 50.75098 | 19.60286 | 31043 ft | 538 kts | 215° |
| 2026-04-30 20:51 | 50.72092 | 19.56774 | 31330 ft | 539 kts | 215° |
| 2026-04-30 20:52 | 50.69073 | 19.53258 | 31621 ft | 540 kts | 215° |
| 2026-04-30 20:52 | 50.66050 | 19.49742 | 31970 ft | 539 kts | 215° |
| 2026-04-30 20:52 | 50.60035 | 19.42764 | 32852 ft | 534 kts | 215° |
| 2026-04-30 20:53 | 50.57044 | 19.39307 | 33271 ft | 532 kts | 215° |
| 2026-04-30 20:53 | 50.54067 | 19.35869 | 33703 ft | 530 kts | 215° |
| 2026-04-30 20:53 | 50.51100 | 19.32448 | 34129 ft | 528 kts | 215° |
| 2026-04-30 20:54 | 50.45224 | 19.25678 | 34411 ft | 516 kts | 215° |
| 2026-04-30 20:54 | 50.42342 | 19.22364 | 34408 ft | 512 kts | 215° |
| 2026-04-30 20:55 | 50.33750 | 19.12529 | 34409 ft | 509 kts | 215° |
| 2026-04-30 20:55 | 50.28028 | 19.06009 | 34405 ft | 508 kts | 215° |
| 2026-04-30 20:56 | 50.19453 | 18.96269 | 34404 ft | 508 kts | 215° |
| 2026-04-30 20:57 | 50.11846 | 18.87676 | 34404 ft | 507 kts | 214° |
| 2026-04-30 20:57 | 50.06137 | 18.81234 | 34408 ft | 506 kts | 215° |
| 2026-04-30 20:58 | 49.97593 | 18.71621 | 34407 ft | 505 kts | 214° |
| 2026-04-30 20:58 | 49.91890 | 18.65248 | 34410 ft | 505 kts | 214° |
| 2026-04-30 20:59 | 49.83642 | 18.55068 | 34410 ft | 504 kts | 229° |
| 2026-04-30 21:00 | 49.74814 | 18.38368 | 34400 ft | 503 kts | 232° |
| 2026-04-30 21:01 | 49.68139 | 18.25822 | 34391 ft | 503 kts | 232° |
| 2026-04-30 21:02 | 49.61483 | 18.13300 | 34389 ft | 503 kts | 232° |
| 2026-04-30 21:02 | 49.57068 | 18.05038 | 34388 ft | 503 kts | 232° |
| 2026-04-30 21:03 | 49.52618 | 17.96726 | 34393 ft | 503 kts | 232° |
| 2026-04-30 21:03 | 49.48129 | 17.88381 | 34394 ft | 503 kts | 232° |
| 2026-04-30 21:04 | 49.43623 | 17.80025 | 34395 ft | 503 kts | 232° |
| 2026-04-30 21:04 | 49.41430 | 17.75970 | 34276 ft | 502 kts | 232° |
| 2026-04-30 21:04 | 49.36980 | 17.67768 | 33084 ft | 499 kts | 231° |
| 2026-04-30 21:05 | 49.34761 | 17.63688 | 32487 ft | 498 kts | 231° |
| 2026-04-30 21:05 | 49.32544 | 17.59615 | 31885 ft | 497 kts | 231° |
| 2026-04-30 21:05 | 49.30249 | 17.55396 | 31280 ft | 496 kts | 231° |
| 2026-04-30 21:05 | 49.28079 | 17.51408 | 30717 ft | 496 kts | 230° |
| 2026-04-30 21:06 | 49.25878 | 17.47378 | 30090 ft | 496 kts | 230° |
| 2026-04-30 21:06 | 49.23658 | 17.43326 | 29538 ft | 492 kts | 230° |
| 2026-04-30 21:06 | 49.21475 | 17.39349 | 28994 ft | 489 kts | 230° |
| 2026-04-30 21:06 | 49.19299 | 17.35388 | 28462 ft | 486 kts | 230° |
| 2026-04-30 21:07 | 49.17132 | 17.31444 | 27919 ft | 482 kts | 230° |
| 2026-04-30 21:07 | 49.14982 | 17.27538 | 27373 ft | 479 kts | 230° |
| 2026-04-30 21:07 | 49.12840 | 17.23660 | 26903 ft | 475 kts | 230° |
| 2026-04-30 21:07 | 49.10719 | 17.19822 | 26328 ft | 473 kts | 230° |
| 2026-04-30 21:08 | 49.08616 | 17.16021 | 25983 ft | 465 kts | 230° |
| 2026-04-30 21:08 | 49.06539 | 17.12269 | 25490 ft | 461 kts | 230° |
| 2026-04-30 21:08 | 49.04480 | 17.08552 | 25035 ft | 457 kts | 230° |
| 2026-04-30 21:08 | 49.02445 | 17.04878 | 24429 ft | 450 kts | 230° |
| 2026-04-30 21:09 | 49.00437 | 17.01262 | 23611 ft | 444 kts | 230° |
| 2026-04-30 21:09 | 48.98456 | 16.97709 | 22825 ft | 435 kts | 231° |
| 2026-04-30 21:09 | 48.96505 | 16.94214 | 22386 ft | 430 kts | 230° |
| 2026-04-30 21:09 | 48.94569 | 16.90753 | 21809 ft | 430 kts | 230° |
| 2026-04-30 21:10 | 48.92670 | 16.87357 | 21514 ft | 422 kts | 231° |
| 2026-04-30 21:10 | 48.90765 | 16.83951 | 20780 ft | 416 kts | 231° |
| 2026-04-30 21:10 | 48.88907 | 16.80630 | 20161 ft | 408 kts | 231° |
| 2026-04-30 21:10 | 48.87067 | 16.77355 | 19664 ft | 407 kts | 231° |
| 2026-04-30 21:11 | 48.85238 | 16.74107 | 19224 ft | 405 kts | 231° |
| 2026-04-30 21:11 | 48.83419 | 16.70880 | 18897 ft | 397 kts | 231° |
| 2026-04-30 21:11 | 48.81621 | 16.67735 | 18189 ft | 391 kts | 226° |
| 2026-04-30 21:11 | 48.79544 | 16.65262 | 17674 ft | 380 kts | 207° |
| 2026-04-30 21:12 | 48.77137 | 16.63840 | 17264 ft | 366 kts | 188° |
| 2026-04-30 21:12 | 48.74657 | 16.63534 | 17073 ft | 351 kts | 171° |
| 2026-04-30 21:12 | 48.72289 | 16.64131 | 16853 ft | 343 kts | 162° |
| 2026-04-30 21:12 | 48.69965 | 16.64897 | 16625 ft | 341 kts | 162° |
| 2026-04-30 21:13 | 48.67654 | 16.65655 | 16400 ft | 340 kts | 163° |
| 2026-04-30 21:13 | 48.65282 | 16.65871 | 16141 ft | 344 kts | 178° |
| 2026-04-30 21:13 | 48.62894 | 16.65712 | 15889 ft | 343 kts | 178° |
| 2026-04-30 21:13 | 48.60517 | 16.65540 | 15636 ft | 341 kts | 179° |
| 2026-04-30 21:14 | 48.58150 | 16.65363 | 15387 ft | 340 kts | 179° |
| 2026-04-30 21:14 | 48.55796 | 16.65209 | 15141 ft | 337 kts | 178° |
| 2026-04-30 21:14 | 48.53461 | 16.65121 | 14898 ft | 335 kts | 177° |
| 2026-04-30 21:14 | 48.51136 | 16.65068 | 14649 ft | 333 kts | 176° |
| 2026-04-30 21:15 | 48.48827 | 16.65023 | 14411 ft | 331 kts | 176° |
| 2026-04-30 21:15 | 48.46531 | 16.64978 | 14165 ft | 329 kts | 176° |
| 2026-04-30 21:15 | 48.44245 | 16.64924 | 13897 ft | 328 kts | 177° |
| 2026-04-30 21:15 | 48.41970 | 16.64858 | 13630 ft | 326 kts | 177° |
| 2026-04-30 21:16 | 48.39714 | 16.64786 | 13360 ft | 324 kts | 177° |
| 2026-04-30 21:16 | 48.37438 | 16.64714 | 13090 ft | 322 kts | 177° |
| 2026-04-30 21:16 | 48.35236 | 16.64647 | 12832 ft | 320 kts | 178° |
| 2026-04-30 21:16 | 48.33015 | 16.64578 | 12567 ft | 318 kts | 178° |
| 2026-04-30 21:17 | 48.30805 | 16.64509 | 12305 ft | 316 kts | 178° |
| 2026-04-30 21:17 | 48.28610 | 16.64449 | 12050 ft | 314 kts | 176° |
| 2026-04-30 21:17 | 48.26455 | 16.64746 | 11805 ft | 309 kts | 166° |
| 2026-04-30 21:17 | 48.24383 | 16.65528 | 11548 ft | 306 kts | 160° |
| 2026-04-30 21:18 | 48.22340 | 16.66392 | 11299 ft | 304 kts | 160° |
| 2026-04-30 21:18 | 48.20288 | 16.67255 | 10765 ft | 311 kts | 161° |
| 2026-04-30 21:18 | 48.18224 | 16.68122 | 10524 ft | 305 kts | 161° |
| 2026-04-30 21:18 | 48.16189 | 16.68970 | 10205 ft | 301 kts | 161° |
| 2026-04-30 21:19 | 48.14184 | 16.69802 | 9600 ft | 298 kts | 161° |
| 2026-04-30 21:19 | 48.12198 | 16.70629 | 8927 ft | 295 kts | 162° |
| 2026-04-30 21:19 | 48.10226 | 16.71453 | 8264 ft | 293 kts | 162° |
| 2026-04-30 21:19 | 48.08267 | 16.72272 | 7615 ft | 291 kts | 162° |
| 2026-04-30 21:20 | 48.06323 | 16.73084 | 7003 ft | 289 kts | 162° |
| 2026-04-30 21:20 | 48.04390 | 16.73888 | 6385 ft | 287 kts | 162° |
| 2026-04-30 21:20 | 48.02473 | 16.74679 | 5749 ft | 285 kts | 162° |
| 2026-04-30 21:20 | 48.00568 | 16.75466 | 5102 ft | 283 kts | 162° |
| 2026-04-30 21:21 | 47.98678 | 16.76247 | 4534 ft | 279 kts | 163° |
| 2026-04-30 21:21 | 47.96793 | 16.76466 | 4373 ft | 269 kts | 190° |
| 2026-04-30 21:21 | 47.94194 | 16.73218 | 4103 ft | 242 kts | 254° |
| 2026-04-30 21:22 | 47.93730 | 16.70854 | 3996 ft | 234 kts | 258° |
| 2026-04-30 21:22 | 47.94850 | 16.65186 | 3509 ft | 196 kts | 341° |
| 2026-04-30 21:23 | 47.96100 | 16.64538 | 3285 ft | 183 kts | 346° |
| 2026-04-30 21:23 | 47.97285 | 16.64018 | 3029 ft | 173 kts | 347° |
| 2026-04-30 21:23 | 47.99561 | 16.63056 | 2569 ft | 167 kts | 348° |
| 2026-04-30 21:24 | 48.00642 | 16.62599 | 2337 ft | 156 kts | 348° |
| 2026-04-30 21:24 | 48.01650 | 16.62174 | 2132 ft | 147 kts | 348° |
| 2026-04-30 21:24 | 48.02619 | 16.61766 | 1926 ft | 142 kts | 348° |
| 2026-04-30 21:24 | 48.03569 | 16.61367 | 1738 ft | 141 kts | 347° |
| 2026-04-30 21:25 | 48.05458 | 16.60571 | 1335 ft | 141 kts | 346° |
| 2026-04-30 21:25 | 48.06409 | 16.60177 | 1122 ft | 142 kts | 345° |
| 2026-04-30 21:25 | 48.07361 | 16.59776 | 927 ft | 142 kts | 344° |
| 2026-04-30 21:26 | 48.09237 | 16.58973 | 622 ft | 136 kts | 344° |
| 2026-04-30 21:26 | 48.10051 | 16.58630 | 618 ft | 107 kts | 344° |
| 2026-04-30 21:27 | 48.11225 | 16.58135 | 614 ft | 68 kts | 344° |
| 2026-04-30 21:27 | 48.11621 | 16.57967 | 618 ft | 54 kts | 344° |
| 2026-04-30 21:27 | 48.11814 | 16.57879 | 609 ft | 10 kts | 325° |
| 2026-04-30 21:28 | 48.11863 | 16.57710 | 609 ft | 8 kts | 269° |
| 2026-04-30 21:28 | 48.11852 | 16.57637 | 609 ft | 7 kts | 254° |
| 2026-04-30 21:28 | 48.11831 | 16.57529 | 620 ft | 4 kts | 253° |
| 2026-04-30 21:29 | 48.11824 | 16.57491 | 619 ft | 3 kts | 254° |
| 2026-04-30 21:29 | 48.11844 | 16.57247 | 612 ft | 10 kts | 296° |
| 2026-04-30 21:30 | 48.11879 | 16.57069 | 615 ft | 8 kts | 297° |
| 2026-04-30 21:31 | 48.11911 | 16.56971 | 618 ft | 8 kts | 296° |
| 2026-04-30 21:31 | 48.11938 | 16.56888 | 621 ft | 1 kts | 291° |
| 2026-04-30 21:32 | 48.11918 | 16.56850 | 624 ft | 4 kts | 217° |
| 2026-04-30 21:32 | 48.11894 | 16.56832 | 615 ft | 3 kts | 206° |
| 2026-04-30 21:32 | 48.11878 | 16.56821 | 611 ft | 1 kts | 206° |
| 2026-04-30 21:32 | 48.11873 | 16.56817 | 609 ft | 0 kts | 206° |